createdAt,value
2022-10-28T00:00:53.603Z,9.66
2022-10-28T00:01:58.541Z,9.66
2022-10-28T00:03:02.029Z,9.64
2022-10-28T00:04:07.335Z,9.64
2022-10-28T00:05:09.872Z,9.63
2022-10-28T00:06:18.206Z,9.64
2022-10-28T00:07:22.825Z,9.61
2022-10-28T00:08:27.499Z,9.58
2022-10-28T00:09:29.776Z,9.56
2022-10-28T00:10:34.443Z,9.55
2022-10-28T00:11:36.476Z,9.55
2022-10-28T00:12:41.810Z,9.55
2022-10-28T00:13:45.855Z,9.56
2022-10-28T00:14:50.848Z,9.56
2022-10-28T00:15:52.875Z,9.56
2022-10-28T00:16:57.634Z,9.55
2022-10-28T00:18:00.181Z,9.55
2022-10-28T00:19:07.222Z,9.55
2022-10-28T00:20:10.346Z,9.53
2022-10-28T00:21:19.231Z,9.56
2022-10-28T00:22:24.041Z,9.55
2022-10-28T00:23:28.663Z,9.56
2022-10-28T00:24:33.312Z,9.55
2022-10-28T00:25:35.372Z,9.56
2022-10-28T00:26:42.345Z,9.60
2022-10-28T00:27:44.427Z,9.60
2022-10-28T00:28:50.272Z,9.60
2022-10-28T00:29:52.341Z,9.57
2022-10-28T00:30:56.979Z,9.58
2022-10-28T00:31:59.065Z,9.58
2022-10-28T00:33:03.670Z,9.57
2022-10-28T00:34:11.548Z,9.59
2022-10-28T00:35:16.232Z,9.58
2022-10-28T00:36:20.119Z,9.57
2022-10-28T00:37:27.390Z,9.57
2022-10-28T00:38:31.014Z,9.57
2022-10-28T00:39:35.620Z,9.59
2022-10-28T00:40:37.712Z,9.58
2022-10-28T00:41:45.337Z,9.57
2022-10-28T00:42:47.376Z,9.58
2022-10-28T00:43:54.224Z,9.56
2022-10-28T00:44:58.826Z,9.58
2022-10-28T00:46:04.128Z,9.57
2022-10-28T00:47:11.437Z,9.57
2022-10-28T00:48:16.301Z,9.56
2022-10-28T00:49:22.444Z,9.56
2022-10-28T00:50:46.265Z,9.59
2022-10-28T00:51:56.490Z,9.61
2022-10-28T00:53:03.959Z,9.61
2022-10-28T00:54:09.437Z,9.61
2022-10-28T00:55:13.126Z,9.63
2022-10-28T00:56:20.010Z,9.62
2022-10-28T00:57:26.968Z,9.65
2022-10-28T00:58:33.509Z,9.66
2022-10-28T00:59:38.974Z,9.67
2022-10-28T01:02:42.550Z,9.64
2022-10-28T01:04:12.131Z,9.62
2022-10-28T01:05:51.141Z,9.63
2022-10-28T01:07:18.123Z,9.63
2022-10-28T01:08:35.951Z,9.63
2022-10-28T01:10:08.289Z,9.64
2022-10-28T01:13:02.633Z,9.65
2022-10-28T01:15:01.910Z,9.61
2022-10-28T01:16:39.021Z,9.56
2022-10-28T01:17:59.599Z,9.52
2022-10-28T01:19:54.360Z,9.51
2022-10-28T01:21:46.452Z,9.48
2022-10-28T01:23:11.498Z,9.48
2022-10-28T01:24:58.553Z,9.47
2022-10-28T01:27:00.126Z,9.45
2022-10-28T01:28:59.697Z,9.42
2022-10-28T01:30:34.114Z,9.40
2022-10-28T01:32:12.528Z,9.38
2022-10-28T01:33:34.848Z,9.38
2022-10-28T01:34:51.171Z,9.36
2022-10-28T01:36:00.997Z,9.36
2022-10-28T01:37:13.259Z,9.36
2022-10-28T01:38:30.212Z,9.38
2022-10-28T01:39:39.635Z,9.40
2022-10-28T01:40:53.395Z,9.38
2022-10-28T01:42:00.902Z,9.37
2022-10-28T01:43:27.494Z,9.38
2022-10-28T01:44:50.610Z,9.39
2022-10-28T01:46:34.599Z,9.40
2022-10-28T01:48:14.694Z,9.37
2022-10-28T01:49:38.677Z,9.38
2022-10-28T01:51:13.538Z,9.41
2022-10-28T01:52:42.441Z,9.41
2022-10-28T01:54:01.516Z,9.45
2022-10-28T01:55:22.029Z,9.48
2022-10-28T01:56:47.367Z,9.52
2022-10-28T01:58:07.805Z,9.53
2022-10-28T01:59:14.326Z,9.54
2022-10-28T02:00:46.746Z,9.55
2022-10-28T02:02:11.817Z,9.58
2022-10-28T02:03:33.926Z,9.59
2022-10-28T02:05:35.409Z,9.64
2022-10-28T02:07:00.494Z,9.67
2022-10-28T02:08:27.601Z,9.69
2022-10-28T02:10:04.675Z,9.74
2022-10-28T02:11:40.619Z,9.79
2022-10-28T02:12:59.147Z,9.79
2022-10-28T02:14:37.878Z,9.82
2022-10-28T02:16:07.164Z,9.82
2022-10-28T02:17:43.147Z,9.82
2022-10-28T02:19:15.804Z,9.79
2022-10-28T02:20:32.204Z,9.80
2022-10-28T02:23:31.086Z,9.76
2022-10-28T02:24:53.568Z,9.72
2022-10-28T02:26:34.591Z,9.70
2022-10-28T02:27:50.010Z,9.65
2022-10-28T02:29:07.972Z,9.63
2022-10-28T02:30:27.181Z,9.63
2022-10-28T02:31:52.514Z,9.62
2022-10-28T02:33:15.102Z,9.61
2022-10-28T02:34:48.526Z,9.64
2022-10-28T02:38:10.349Z,9.67
2022-10-28T02:40:42.834Z,9.66
2022-10-28T02:42:17.043Z,9.66
2022-10-28T02:43:43.051Z,9.68
2022-10-28T02:44:56.939Z,9.68
2022-10-28T02:46:45.765Z,9.66
2022-10-28T02:48:38.841Z,9.64
2022-10-28T02:51:37.945Z,9.64
2022-10-28T02:52:56.284Z,9.67
2022-10-28T02:54:17.817Z,9.68
2022-10-28T02:55:40.997Z,9.67
2022-10-28T02:57:03.108Z,9.68
2022-10-28T02:58:23.581Z,9.67
2022-10-28T02:59:36.636Z,9.67
2022-10-28T03:00:58.139Z,9.67
2022-10-28T03:02:20.935Z,9.66
2022-10-28T03:03:45.041Z,9.65
2022-10-28T03:05:03.334Z,9.63
2022-10-28T03:06:34.412Z,9.63
2022-10-28T03:08:01.403Z,9.62
2022-10-28T03:09:06.717Z,9.62
2022-10-28T03:10:24.645Z,9.64
2022-10-28T03:11:41.259Z,9.67
2022-10-28T03:12:56.321Z,9.68
2022-10-28T03:14:15.434Z,9.72
2022-10-28T03:15:31.897Z,9.74
2022-10-28T03:17:02.120Z,9.78
2022-10-28T03:18:26.330Z,9.78
2022-10-28T03:19:42.781Z,9.80
2022-10-28T03:21:10.917Z,9.80
2022-10-28T03:22:24.445Z,9.82
2022-10-28T03:23:44.310Z,9.82
2022-10-28T03:24:52.002Z,9.78
2022-10-28T03:26:17.905Z,9.76
2022-10-28T03:27:58.386Z,9.78
2022-10-28T04:21:41.698Z,9.87
2022-10-28T04:22:43.856Z,9.88
2022-10-28T04:23:48.479Z,9.90
2022-10-28T04:24:50.497Z,9.97
2022-10-28T04:25:56.022Z,10.00
2022-10-28T04:26:58.027Z,10.04
2022-10-28T04:28:02.690Z,10.11
2022-10-28T04:29:04.787Z,10.16
2022-10-28T04:30:12.702Z,10.20
2022-10-28T04:31:14.904Z,10.27
2022-10-28T04:32:19.518Z,10.32
2022-10-28T04:33:21.528Z,10.38
2022-10-28T04:34:26.301Z,10.42
2022-10-28T04:35:28.566Z,10.47
2022-10-28T04:36:33.206Z,10.51
2022-10-28T04:37:38.198Z,10.55
2022-10-28T04:38:42.805Z,10.59
2022-10-28T04:39:44.847Z,10.61
2022-10-28T04:40:50.878Z,10.64
2022-10-28T04:41:52.952Z,10.69
2022-10-28T04:42:57.578Z,10.72
2022-10-28T04:43:59.637Z,10.73
2022-10-28T04:45:04.433Z,10.73
2022-10-28T04:46:09.184Z,10.72
2022-10-28T04:47:11.481Z,10.74
2022-10-28T04:48:16.227Z,10.71
2022-10-28T04:49:18.365Z,10.71
2022-10-28T04:50:23.181Z,10.69
2022-10-28T04:51:25.201Z,10.67
2022-10-28T04:52:30.293Z,10.67
2022-10-28T04:53:34.903Z,10.66
2022-10-28T04:54:39.832Z,10.68
2022-10-28T04:55:42.055Z,10.71
2022-10-28T04:56:48.162Z,10.71
2022-10-28T04:57:54.318Z,10.73
2022-10-28T04:58:58.955Z,10.74
2022-10-28T05:00:01.037Z,10.74
2022-10-28T05:01:08.776Z,10.74
2022-10-28T05:02:10.971Z,10.73
2022-10-28T05:03:15.656Z,10.73
2022-10-28T05:04:17.662Z,10.73
2022-10-28T05:05:22.523Z,10.73
2022-10-28T05:06:24.633Z,10.73
2022-10-28T05:07:29.209Z,10.72
2022-10-28T05:08:31.303Z,10.72
2022-10-28T05:09:38.576Z,10.74
2022-10-28T05:10:40.679Z,10.73
2022-10-28T05:11:45.366Z,10.73
2022-10-28T05:12:47.433Z,10.76
2022-10-28T05:13:53.166Z,10.76
2022-10-28T05:14:55.471Z,10.79
2022-10-28T05:16:00.088Z,10.79
2022-10-28T05:17:02.103Z,10.80
2022-10-28T05:18:07.005Z,10.82
2022-10-28T05:19:09.049Z,10.88
2022-10-28T05:20:15.594Z,10.91
2022-10-28T05:21:20.366Z,10.93
2022-10-28T05:22:22.374Z,10.97
2022-10-28T05:23:30.782Z,10.97
2022-10-28T05:24:35.707Z,11.01
2022-10-28T05:25:40.383Z,11.02
2022-10-28T05:26:42.391Z,11.03
2022-10-28T05:27:47.064Z,11.03
2022-10-28T05:28:50.170Z,11.06
2022-10-28T05:29:54.891Z,11.07
2022-10-28T05:30:57.062Z,11.09
2022-10-28T05:32:02.053Z,11.10
2022-10-28T05:33:04.768Z,11.10
2022-10-28T05:34:09.558Z,11.09
2022-10-28T05:35:12.029Z,11.10
2022-10-28T05:36:16.707Z,11.11
2022-10-28T05:37:18.780Z,11.09
2022-10-28T05:38:23.407Z,11.10
2022-10-28T05:39:25.457Z,11.12
2022-10-28T05:40:33.672Z,11.11
2022-10-28T05:41:38.787Z,11.11
2022-10-28T05:42:45.012Z,11.09
2022-10-28T05:43:47.051Z,11.11
2022-10-28T05:44:51.734Z,11.09
2022-10-28T05:45:53.967Z,11.08
2022-10-28T05:46:58.535Z,11.08
2022-10-28T05:48:03.251Z,11.06
2022-10-28T05:49:05.436Z,11.06
2022-10-28T05:50:10.806Z,11.05
2022-10-28T05:51:12.809Z,11.05
2022-10-28T05:52:17.499Z,11.06
2022-10-28T05:53:22.126Z,11.06
2022-10-28T05:54:24.499Z,11.07
2022-10-28T05:55:32.566Z,11.10
2022-10-28T05:56:34.569Z,11.13
2022-10-28T05:57:39.401Z,11.13
2022-10-28T05:58:41.484Z,11.12
2022-10-28T05:59:46.217Z,11.13
2022-10-28T06:00:50.901Z,11.11
2022-10-28T06:01:53.069Z,11.10
2022-10-28T06:03:09.340Z,11.09
2022-10-28T06:04:11.394Z,11.08
2022-10-28T06:05:16.602Z,11.08
2022-10-28T06:06:18.658Z,11.08
2022-10-28T06:07:24.641Z,11.09
2022-10-28T06:08:29.347Z,11.13
2022-10-28T06:09:31.384Z,11.15
2022-10-28T06:10:38.589Z,11.17
2022-10-28T06:11:39.355Z,11.17
2022-10-28T06:12:43.971Z,11.21
2022-10-28T06:13:45.975Z,11.33
2022-10-28T06:14:50.766Z,11.54
2022-10-28T06:15:53.611Z,11.99
2022-10-28T06:16:58.356Z,12.03
2022-10-28T06:18:03.156Z,12.09
2022-10-28T06:19:05.179Z,12.20
2022-10-28T06:20:11.221Z,12.26
2022-10-28T06:21:13.311Z,12.31
2022-10-28T06:22:18.137Z,12.35
2022-10-28T06:23:20.544Z,12.39
2022-10-28T06:24:25.284Z,12.42
2022-10-28T06:25:27.299Z,12.44
2022-10-28T06:26:34.526Z,12.46
2022-10-28T06:27:36.559Z,12.47
2022-10-28T06:28:41.188Z,12.48
2022-10-28T06:29:43.222Z,12.49
2022-10-28T06:30:47.861Z,12.50
2022-10-28T06:31:49.888Z,12.53
2022-10-28T06:32:57.434Z,12.54
2022-10-28T06:33:59.495Z,12.55
2022-10-28T06:35:04.238Z,12.55
2022-10-28T06:36:09.511Z,12.52
2022-10-28T06:37:12.826Z,12.51
2022-10-28T06:38:17.442Z,12.53
2022-10-28T06:39:19.526Z,12.52
2022-10-28T06:40:24.266Z,12.48
2022-10-28T06:41:26.267Z,12.45
2022-10-28T06:42:33.555Z,12.43
2022-10-28T06:43:35.570Z,12.42
2022-10-28T06:44:40.249Z,12.38
2022-10-28T06:45:44.031Z,12.34
2022-10-28T06:46:50.166Z,12.30
2022-10-28T06:47:56.076Z,12.27
2022-10-28T06:49:03.193Z,12.25
2022-10-28T06:50:07.022Z,12.22
2022-10-28T06:51:11.615Z,12.19
2022-10-28T06:52:13.698Z,12.17
2022-10-28T06:53:18.460Z,12.12
2022-10-28T06:54:21.104Z,12.12
2022-10-28T06:55:25.770Z,12.09
2022-10-28T06:56:27.765Z,12.08
2022-10-28T06:57:34.994Z,12.06
2022-10-28T06:58:39.601Z,12.04
2022-10-28T06:59:42.222Z,12.04
2022-10-28T07:00:46.862Z,12.03
2022-10-28T07:01:48.972Z,12.04
2022-10-28T07:02:54.533Z,12.05
2022-10-28T07:03:59.324Z,12.09
2022-10-28T07:05:01.556Z,12.11
2022-10-28T07:06:06.387Z,12.12
2022-10-28T07:07:08.584Z,12.16
2022-10-28T07:08:14.525Z,12.20
2022-10-28T07:09:19.141Z,12.24
2022-10-28T07:10:23.823Z,12.29
2022-10-28T07:11:25.895Z,12.35
2022-10-28T07:12:30.666Z,12.40
2022-10-28T07:13:38.454Z,12.47
2022-10-28T07:14:43.128Z,12.53
2022-10-28T07:15:45.152Z,12.60
2022-10-28T07:16:49.750Z,12.66
2022-10-28T07:17:55.461Z,12.75
2022-10-28T07:19:00.135Z,12.83
2022-10-28T07:20:02.176Z,12.90
2022-10-28T07:21:07.294Z,12.96
2022-10-28T07:22:12.372Z,13.01
2022-10-28T07:23:14.839Z,13.07
2022-10-28T07:24:19.567Z,13.11
2022-10-28T07:25:21.611Z,13.16
2022-10-28T07:26:27.397Z,13.23
2022-10-28T07:27:29.803Z,13.28
2022-10-28T07:28:34.698Z,13.34
2022-10-28T07:29:42.103Z,13.38
2022-10-28T07:30:46.752Z,13.41
2022-10-28T07:31:51.353Z,13.42
2022-10-28T07:32:54.318Z,13.44
2022-10-28T07:33:59.168Z,13.45
2022-10-28T07:35:07.551Z,13.48
2022-10-28T07:36:13.691Z,13.51
2022-10-28T07:37:15.742Z,13.56
2022-10-28T07:38:20.351Z,13.60
2022-10-28T07:39:22.431Z,13.64
2022-10-28T07:40:28.322Z,13.69
2022-10-28T07:41:33.114Z,13.74
2022-10-28T07:42:35.587Z,13.81
2022-10-28T07:43:40.785Z,13.85
2022-10-28T07:44:48.054Z,13.93
2022-10-28T07:45:56.120Z,14.02
2022-10-28T07:47:00.752Z,14.09
2022-10-28T07:48:05.464Z,14.16
2022-10-28T07:49:10.379Z,14.24
2022-10-28T07:50:16.499Z,14.30
2022-10-28T07:51:26.537Z,14.37
2022-10-28T07:52:33.488Z,14.48
2022-10-28T07:53:39.927Z,14.57
2022-10-28T07:54:45.016Z,14.66
2022-10-28T07:55:58.907Z,14.79
2022-10-28T07:57:01.761Z,14.90
2022-10-28T07:58:07.086Z,15.01
2022-10-28T07:59:11.942Z,15.11
2022-10-28T08:00:18.241Z,15.24
2022-10-28T08:01:24.643Z,15.36
2022-10-28T08:02:27.746Z,15.46
2022-10-28T08:03:38.570Z,15.55
2022-10-28T08:04:44.693Z,15.70
2022-10-28T08:05:47.665Z,15.83
2022-10-28T08:08:18.081Z,16.11
2022-10-28T08:09:20.899Z,16.24
2022-10-28T08:10:26.511Z,16.35
2022-10-28T08:11:28.724Z,16.42
2022-10-28T08:12:39.240Z,16.51
2022-10-28T08:14:04.039Z,16.58
2022-10-28T08:15:13.914Z,16.66
2022-10-28T08:16:48.655Z,16.70
2022-10-28T08:18:21.058Z,16.78
2022-10-28T08:19:35.639Z,16.82
2022-10-28T08:20:54.063Z,16.88
2022-10-28T08:22:13.364Z,16.90
2022-10-28T08:23:33.648Z,16.92
2022-10-28T08:25:15.072Z,16.94
2022-10-28T08:26:38.817Z,16.97
2022-10-28T08:27:54.872Z,16.99
2022-10-28T08:29:21.198Z,17.03
2022-10-28T08:30:56.754Z,17.06
2022-10-28T08:32:21.984Z,17.09
2022-10-28T08:33:47.716Z,17.13
2022-10-28T08:35:01.580Z,17.19
2022-10-28T08:36:33.876Z,17.25
2022-10-28T08:37:55.165Z,17.28
2022-10-28T08:39:14.250Z,17.34
2022-10-28T08:40:44.005Z,17.40
2022-10-28T08:42:11.701Z,17.47
2022-10-28T08:43:45.930Z,17.54
2022-10-28T08:45:17.107Z,17.62
2022-10-28T08:46:39.697Z,17.68
2022-10-28T08:49:27.447Z,17.84
2022-10-28T08:50:49.875Z,17.91
2022-10-28T08:52:32.013Z,18.01
2022-10-28T08:53:51.877Z,18.11
2022-10-28T08:55:19.810Z,18.21
2022-10-28T08:56:42.268Z,18.28
2022-10-28T08:58:03.062Z,18.34
2022-10-28T08:59:29.837Z,18.42
2022-10-28T09:01:03.752Z,18.49
2022-10-28T09:02:23.380Z,18.55
2022-10-28T09:03:54.164Z,18.59
2022-10-28T09:05:21.196Z,18.64
2022-10-28T09:07:10.130Z,18.70
2022-10-28T09:08:40.623Z,18.79
2022-10-28T09:10:01.350Z,18.84
2022-10-28T09:13:25.362Z,18.94
2022-10-28T09:15:31.837Z,18.97
2022-10-28T09:16:53.278Z,19.03
2022-10-28T09:20:02.513Z,19.21
2022-10-28T09:21:29.448Z,19.30
2022-10-28T09:24:32.555Z,19.51
2022-10-28T09:26:18.550Z,19.60
2022-10-28T09:27:57.081Z,19.72
2022-10-28T09:29:26.836Z,19.82
2022-10-28T09:31:05.763Z,19.89
2022-10-28T09:32:28.629Z,19.95
2022-10-28T09:34:01.173Z,20.00
2022-10-28T09:35:33.030Z,20.01
2022-10-28T09:37:01.998Z,20.03
2022-10-28T09:38:32.642Z,20.07
2022-10-28T09:40:17.792Z,20.10
2022-10-28T09:43:26.431Z,20.22
2022-10-28T09:45:18.841Z,20.30
2022-10-28T09:46:54.712Z,20.40
2022-10-28T09:48:32.741Z,20.55
2022-10-28T09:49:46.854Z,20.68
2022-10-28T09:51:12.693Z,20.83
2022-10-28T09:54:27.037Z,21.11
2022-10-28T09:56:03.377Z,21.20
2022-10-28T09:57:26.018Z,21.32
2022-10-28T09:58:49.362Z,20.89
2022-10-28T10:00:12.012Z,20.59
2022-10-28T10:01:39.951Z,20.92
2022-10-28T10:03:02.082Z,21.14
2022-10-28T10:04:31.599Z,21.30
2022-10-28T10:06:01.954Z,21.43
2022-10-28T10:07:31.522Z,21.53
2022-10-28T10:08:47.383Z,21.65
2022-10-28T10:10:16.332Z,21.36
2022-10-28T10:11:49.763Z,21.38
2022-10-28T10:13:12.193Z,21.32
2022-10-28T10:14:37.538Z,21.45
2022-10-28T10:15:52.867Z,22.08
2022-10-28T10:17:19.451Z,22.44
2022-10-28T10:18:37.247Z,22.59
2022-10-28T10:20:15.852Z,22.59
2022-10-28T10:21:55.063Z,22.46
2022-10-28T10:23:34.251Z,22.26
2022-10-28T10:24:50.403Z,22.18
2022-10-28T10:26:12.025Z,22.04
2022-10-28T10:27:38.078Z,22.03
2022-10-28T10:28:55.397Z,22.03
2022-10-28T10:30:25.829Z,22.01
2022-10-28T10:31:58.983Z,21.82
2022-10-28T10:33:35.713Z,21.82
2022-10-28T10:35:00.284Z,21.78
2022-10-28T10:36:38.207Z,21.31
2022-10-28T10:37:48.643Z,21.12
2022-10-28T10:39:26.884Z,21.27
2022-10-28T10:40:55.233Z,21.63
2022-10-28T10:43:46.973Z,22.68
2022-10-28T10:45:31.303Z,23.11
2022-10-28T10:46:53.277Z,22.90
2022-10-28T10:48:19.032Z,22.83
2022-10-28T10:49:32.736Z,22.51
2022-10-28T10:50:56.704Z,22.38
2022-10-28T10:52:31.866Z,22.31
2022-10-28T10:54:04.018Z,22.73
2022-10-28T10:55:44.580Z,22.46
2022-10-28T10:57:11.018Z,22.63
2022-10-28T10:58:21.533Z,22.62
2022-10-28T10:59:27.561Z,22.55
2022-10-28T11:00:38.444Z,22.86
2022-10-28T11:01:41.076Z,22.87
2022-10-28T11:02:52.218Z,22.93
2022-10-28T11:04:04.432Z,23.17
2022-10-28T11:05:09.114Z,22.94
2022-10-28T11:06:24.743Z,22.63
2022-10-28T11:07:29.099Z,22.89
2022-10-28T11:08:40.236Z,23.39
2022-10-28T11:09:47.690Z,23.17
2022-10-28T11:11:06.864Z,23.79
2022-10-28T11:12:30.785Z,24.45
2022-10-28T11:13:35.804Z,25.11
2022-10-28T11:14:41.515Z,25.79
2022-10-28T11:16:02.495Z,26.40
2022-10-28T11:17:25.375Z,27.20
2022-10-28T11:18:32.162Z,28.00
2022-10-28T11:19:39.855Z,28.50
2022-10-28T11:20:54.145Z,28.87
2022-10-28T11:22:12.859Z,29.14
2022-10-28T11:23:29.305Z,29.25
2022-10-28T11:24:47.916Z,29.30
2022-10-28T11:25:58.273Z,29.38
2022-10-28T11:27:10.817Z,29.14
2022-10-28T11:28:59.621Z,27.54
2022-10-28T11:30:03.972Z,27.04
2022-10-28T11:31:34.737Z,27.12
2022-10-28T11:33:01.699Z,27.31
2022-10-28T11:34:34.949Z,26.94
2022-10-28T11:35:48.864Z,27.24
2022-10-28T11:37:09.819Z,27.27
2022-10-28T11:38:25.006Z,27.30
2022-10-28T11:39:36.872Z,27.27
2022-10-28T11:40:57.898Z,27.20
2022-10-28T11:42:21.526Z,27.20
2022-10-28T11:43:33.169Z,27.15
2022-10-28T11:44:46.181Z,26.98
2022-10-28T11:46:00.378Z,26.84
2022-10-28T11:47:19.682Z,25.65
2022-10-28T11:48:41.228Z,25.16
2022-10-28T11:50:15.284Z,25.56
2022-10-28T11:51:39.632Z,25.39
2022-10-28T11:52:59.012Z,24.92
2022-10-28T11:54:38.854Z,24.50
2022-10-28T11:55:47.933Z,24.80
2022-10-28T11:57:01.761Z,24.94
2022-10-28T11:58:31.484Z,24.55
2022-10-28T12:00:06.457Z,24.79
2022-10-28T12:01:23.718Z,24.77
2022-10-28T12:02:42.219Z,24.76
2022-10-28T12:04:01.586Z,24.51
2022-10-28T12:05:14.695Z,24.52
2022-10-28T12:06:25.940Z,24.12
2022-10-28T12:07:52.855Z,24.22
2022-10-28T12:09:10.916Z,23.78
2022-10-28T12:10:32.075Z,23.51
2022-10-28T12:11:51.828Z,23.20
2022-10-28T12:13:05.010Z,22.91
2022-10-28T12:14:22.290Z,22.91
2022-10-28T12:15:34.218Z,22.93
2022-10-28T12:16:56.304Z,22.67
2022-10-28T12:18:10.872Z,22.50
2022-10-28T12:19:20.509Z,22.37
2022-10-28T12:20:30.188Z,22.33
2022-10-28T12:23:03.191Z,22.24
2022-10-28T12:24:17.199Z,22.20
2022-10-28T12:25:24.093Z,22.15
2022-10-28T12:26:38.858Z,22.40
2022-10-28T12:27:44.521Z,22.60
2022-10-28T12:28:52.968Z,22.49
2022-10-28T12:30:01.541Z,22.55
2022-10-28T12:31:09.369Z,22.43
2022-10-28T12:32:14.202Z,22.51
2022-10-28T12:33:23.784Z,22.64
2022-10-28T12:34:31.817Z,22.79
2022-10-28T12:35:41.093Z,22.88
2022-10-28T12:36:48.480Z,22.94
2022-10-28T12:38:01.004Z,22.84
2022-10-28T12:39:12.412Z,22.68
2022-10-28T12:40:21.627Z,22.86
2022-10-28T12:41:26.568Z,22.97
2022-10-28T12:42:35.835Z,22.99
2022-10-28T12:43:42.576Z,22.99
2022-10-28T12:44:51.377Z,22.97
2022-10-28T12:45:58.843Z,22.87
2022-10-28T12:47:17.152Z,22.81
2022-10-28T12:48:31.083Z,22.90
2022-10-28T12:49:45.795Z,22.53
2022-10-28T12:50:55.667Z,22.29
2022-10-28T12:52:02.841Z,22.72
2022-10-28T12:53:27.399Z,22.64
2022-10-28T12:54:40.114Z,22.37
2022-10-28T12:55:50.358Z,22.44
2022-10-28T12:56:57.212Z,22.38
2022-10-28T12:58:07.510Z,22.81
2022-10-28T12:59:15.303Z,23.28
2022-10-28T13:00:25.041Z,23.76
2022-10-28T13:01:32.430Z,23.52
2022-10-28T13:02:42.187Z,23.70
2022-10-28T13:03:46.883Z,23.88
2022-10-28T13:04:50.201Z,24.56
2022-10-28T13:06:03.166Z,24.66
2022-10-28T13:07:23.155Z,24.49
2022-10-28T13:08:47.542Z,24.58
2022-10-28T13:10:04.256Z,24.74
2022-10-28T13:11:41.905Z,24.79
2022-10-28T13:13:26.874Z,24.92
2022-10-28T13:15:00.851Z,24.86
2022-10-28T13:16:38.616Z,24.85
2022-10-28T13:17:59.070Z,26.14
2022-10-28T13:19:32.763Z,26.78
2022-10-28T13:20:48.480Z,26.73
2022-10-28T13:22:19.143Z,26.97
2022-10-28T13:23:32.628Z,28.41
2022-10-28T13:24:49.726Z,28.70
2022-10-28T13:25:59.281Z,28.54
2022-10-28T13:27:05.735Z,28.45
2022-10-28T13:28:13.924Z,28.85
2022-10-28T13:29:25.965Z,28.74
2022-10-28T13:30:32.118Z,28.53
2022-10-28T13:31:47.606Z,28.29
2022-10-28T13:33:00.566Z,28.13
2022-10-28T13:34:05.339Z,27.94
2022-10-28T13:35:20.927Z,27.75
2022-10-28T13:36:30.257Z,27.80
2022-10-28T13:37:36.590Z,27.98
2022-10-28T13:38:43.350Z,28.38
2022-10-28T13:39:50.283Z,29.02
2022-10-28T13:41:14.619Z,29.81
2022-10-28T13:42:50.112Z,30.43
2022-10-28T13:44:31.404Z,30.90
2022-10-28T13:45:48.851Z,31.02
2022-10-28T13:47:27.265Z,30.67
2022-10-28T13:48:50.214Z,30.74
2022-10-28T13:50:37.416Z,32.17
2022-10-28T13:51:46.709Z,31.32
2022-10-28T13:53:27.076Z,32.41
2022-10-28T13:54:35.351Z,32.94
2022-10-28T13:55:44.283Z,31.50
2022-10-28T13:56:51.247Z,32.49
2022-10-28T13:58:03.550Z,31.38
2022-10-28T13:59:18.262Z,31.93
2022-10-28T14:00:39.322Z,32.04
2022-10-28T14:02:34.645Z,31.08
2022-10-28T14:03:40.469Z,30.78
2022-10-28T14:04:54.332Z,29.95
2022-10-28T14:06:01.166Z,30.38
2022-10-28T14:07:21.502Z,31.03
2022-10-28T14:08:32.514Z,30.68
2022-10-28T14:09:36.329Z,30.39
2022-10-28T14:10:42.810Z,30.73
2022-10-28T14:11:44.869Z,30.37
2022-10-28T14:12:53.359Z,31.88
2022-10-28T14:14:00.109Z,33.11
2022-10-28T14:15:23.350Z,34.05
2022-10-28T14:16:33.194Z,33.88
2022-10-28T14:17:40.747Z,33.99
2022-10-28T14:18:54.565Z,34.13
2022-10-28T14:19:57.641Z,34.31
2022-10-28T14:21:02.508Z,34.41
2022-10-28T14:22:07.789Z,33.15
2022-10-28T14:23:42.656Z,31.10
2022-10-28T14:24:47.664Z,31.02
2022-10-28T14:26:04.819Z,29.64
2022-10-28T14:27:31.924Z,28.84
2022-10-28T14:28:58.209Z,29.07
2022-10-28T14:30:30.126Z,27.33
2022-10-28T14:31:45.645Z,26.69
2022-10-28T14:33:14.065Z,26.51
2022-10-28T14:34:39.152Z,26.24
2022-10-28T14:35:45.730Z,26.05
2022-10-28T14:37:03.081Z,25.90
2022-10-28T14:38:58.074Z,25.71
2022-10-28T14:40:19.179Z,25.59
2022-10-28T14:41:41.400Z,25.43
2022-10-28T14:43:09.439Z,25.27
2022-10-28T14:44:25.721Z,25.10
2022-10-28T14:45:36.923Z,24.93
2022-10-28T14:46:56.568Z,24.75
2022-10-28T14:48:30.431Z,24.03
2022-10-28T14:49:37.631Z,23.87
2022-10-28T14:50:43.313Z,23.89
2022-10-28T14:51:49.360Z,23.78
2022-10-28T14:52:54.346Z,23.79
2022-10-28T14:54:02.439Z,23.69
2022-10-28T14:55:08.562Z,23.65
2022-10-28T14:56:21.231Z,23.59
2022-10-28T14:57:31.011Z,23.50
2022-10-28T14:58:40.341Z,23.43
2022-10-28T14:59:47.672Z,23.31
2022-10-28T15:01:02.159Z,23.22
2022-10-28T15:02:14.751Z,23.16
2022-10-28T15:03:19.992Z,23.08
2022-10-28T15:04:24.807Z,22.97
2022-10-28T15:05:33.558Z,22.99
2022-10-28T15:06:39.285Z,22.85
2022-10-28T15:07:45.186Z,22.76
2022-10-28T15:08:47.310Z,22.66
2022-10-28T15:09:53.726Z,22.60
2022-10-28T15:10:55.965Z,22.58
2022-10-28T15:12:04.016Z,22.48
2022-10-28T15:13:06.100Z,22.39
2022-10-28T15:14:36.847Z,22.32
2022-10-28T15:15:41.495Z,22.23
2022-10-28T15:16:48.467Z,22.18
2022-10-28T15:17:53.572Z,22.08
2022-10-28T15:18:59.128Z,22.03
2022-10-28T15:20:04.167Z,21.95
2022-10-28T15:21:11.981Z,21.85
2022-10-28T15:22:19.519Z,21.71
2022-10-28T15:23:23.455Z,21.67
2022-10-28T15:24:28.174Z,21.59
2022-10-28T15:25:33.115Z,21.50
2022-10-28T15:26:35.200Z,21.41
2022-10-28T15:27:42.086Z,21.34
2022-10-28T15:28:44.151Z,21.25
2022-10-28T15:29:48.838Z,21.17
2022-10-28T15:30:51.196Z,21.07
2022-10-28T15:32:17.220Z,21.01
2022-10-28T15:33:23.535Z,21.01
2022-10-28T15:34:29.684Z,21.00
2022-10-28T15:35:42.438Z,20.91
2022-10-28T15:36:48.982Z,20.81
2022-10-28T15:37:53.918Z,20.73
2022-10-28T15:39:09.491Z,20.66
2022-10-28T15:40:23.943Z,20.60
2022-10-28T15:41:49.507Z,20.51
2022-10-28T15:43:00.262Z,20.44
2022-10-28T15:44:03.524Z,20.37
2022-10-28T15:45:18.357Z,20.34
2022-10-28T15:46:20.449Z,20.25
2022-10-28T15:47:33.013Z,20.17
2022-10-28T15:48:35.746Z,20.10
2022-10-28T15:49:45.558Z,20.05
2022-10-28T15:51:13.813Z,19.97
2022-10-28T15:52:33.726Z,19.87
2022-10-28T15:53:42.333Z,19.80
2022-10-28T15:54:54.474Z,19.70
2022-10-28T15:56:23.045Z,19.61
2022-10-28T15:57:27.836Z,19.53
2022-10-28T15:58:38.244Z,19.46
2022-10-28T15:59:40.643Z,19.38
2022-10-28T16:00:54.995Z,19.33
2022-10-28T16:01:59.351Z,19.25
2022-10-28T16:03:05.697Z,19.19
2022-10-28T16:04:46.809Z,19.10
2022-10-28T16:05:49.392Z,18.96
2022-10-28T16:06:58.942Z,18.88
2022-10-28T16:08:03.041Z,18.80
2022-10-28T16:09:19.164Z,18.69
2022-10-28T16:10:21.297Z,18.60
2022-10-28T16:11:26.066Z,18.51
2022-10-28T16:12:28.537Z,18.46
2022-10-28T16:13:37.923Z,18.36
2022-10-28T16:14:42.575Z,18.28
2022-10-28T16:15:52.517Z,18.22
2022-10-28T16:16:59.927Z,18.15
2022-10-28T16:18:02.077Z,18.06
2022-10-28T16:19:11.577Z,17.99
2022-10-28T16:20:20.328Z,18.05
2022-10-28T16:21:28.715Z,17.99
2022-10-28T16:22:34.517Z,18.05
2022-10-28T16:23:43.339Z,18.04
2022-10-28T16:24:49.074Z,18.01
2022-10-28T16:25:51.215Z,18.02
2022-10-28T16:26:55.952Z,18.01
2022-10-28T16:28:01.005Z,18.02
2022-10-28T16:29:03.242Z,18.05
2022-10-28T16:30:09.525Z,18.14
2022-10-28T16:31:16.677Z,18.13
2022-10-28T16:32:28.522Z,18.19
2022-10-28T16:33:35.904Z,18.22
2022-10-28T16:34:38.059Z,18.20
2022-10-28T16:35:45.326Z,18.15
2022-10-28T16:36:47.336Z,18.14
2022-10-28T16:37:55.547Z,18.33
2022-10-28T16:39:00.957Z,18.26
2022-10-28T16:40:03.124Z,18.20
2022-10-28T16:41:14.275Z,18.16
2022-10-28T16:42:17.338Z,18.10
2022-10-28T16:43:23.489Z,18.04
2022-10-28T16:44:28.076Z,17.99
2022-10-28T16:45:32.790Z,17.94
2022-10-28T16:46:37.904Z,17.94
2022-10-28T16:47:40.415Z,17.93
2022-10-28T16:48:45.159Z,17.97
2022-10-28T16:49:52.625Z,17.99
2022-10-28T16:51:06.198Z,18.11
2022-10-28T16:52:15.478Z,18.15
2022-10-28T16:53:21.326Z,18.19
2022-10-28T16:54:26.050Z,18.21
2022-10-28T16:55:29.553Z,18.23
2022-10-28T16:56:34.273Z,18.26
2022-10-28T16:57:36.987Z,18.25
2022-10-28T16:58:42.766Z,18.23
2022-10-28T16:59:44.874Z,18.24
2022-10-28T17:00:49.748Z,18.35
2022-10-28T17:01:52.103Z,18.39
2022-10-28T17:02:56.851Z,18.39
2022-10-28T17:04:01.876Z,18.33
2022-10-28T17:05:05.189Z,18.32
2022-10-28T17:06:13.703Z,18.33
2022-10-28T17:07:17.849Z,18.32
2022-10-28T17:08:42.175Z,18.26
2022-10-28T17:09:45.356Z,18.21
2022-10-28T17:10:49.955Z,18.26
2022-10-28T17:11:52.028Z,18.24